Creek Data

    Home     View Charts     View Raw Data     Messages

ID Distance Battery Voltage Battery Current Internal Temp Internal Humidity External Temp Solar Input rssi snr Time Stamp Record
34619 0.0 3.96 -5 55 42 56 0.1 -77 8 03/10/2025 07:46 PM 16356
34618 0.0 3.96 -5 56 43 57 0.1 -77 8 03/10/2025 07:30 PM 16355
34617 0.0 3.96 -9 59 43 57 1.7 -76 8 03/10/2025 07:15 PM 16354
34616 0.0 3.97 0 62 43 62 4.5 -77 8 03/10/2025 07:00 PM 16353
34615 0.0 4.05 9 65 42 63 4.5 -76 8 03/10/2025 06:46 PM 16352
34614 0.0 4.06 24 67 42 66 4.5 -75 8 03/10/2025 06:30 PM 16351
34613 0.0 4.05 37 68 42 65 4.5 -76 7 03/10/2025 06:15 PM 16350
34612 15.5 4.06 36 69 43 66 4.5 -76 8 03/10/2025 06:00 PM 16349
34611 0.0 4.06 5 72 42 66 5.1 -75 8 03/10/2025 05:45 PM 16348
34610 0.0 4.07 5 74 42 67 5.1 -76 9 03/10/2025 05:30 PM 16347
34609 0.0 4.00 5 79 39 68 5.1 -75 9 03/10/2025 05:15 PM 16346
34608 0.0 4.00 0 80 38 70 5.1 -74 8 03/10/2025 05:01 PM 16345
34607 0.0 4.00 5 81 38 69 5.1 -75 8 03/10/2025 04:45 PM 16344
34606 0.0 4.00 5 82 38 70 5.1 -76 9 03/10/2025 04:31 PM 16343
34605 0.0 4.00 5 82 38 69 5.1 -75 8 03/10/2025 04:15 PM 16342
34604 15.7 4.00 5 83 37 71 5.1 -76 7 03/10/2025 04:00 PM 16341
34603 15.8 4.00 5 84 35 71 5.1 -77 7 03/10/2025 03:30 PM 16339
34602 15.7 4.00 0 81 35 69 5.1 -75 8 03/10/2025 03:00 PM 16337
34601 15.8 4.00 5 80 35 67 5.1 -76 8 03/10/2025 02:45 PM 16336
34600 15.7 4.00 0 75 36 66 5.1 -76 7 03/10/2025 02:00 PM 16333
34599 15.7 4.00 5 75 35 64 5.1 -76 7 03/10/2025 01:45 PM 16332
34598 15.7 4.00 5 74 35 66 5.1 -76 8 03/10/2025 01:30 PM 16331
34597 15.7 4.00 6 71 36 63 5.1 -75 8 03/10/2025 01:15 PM 16330
34596 15.7 4.00 0 71 36 63 5.1 -75 7 03/10/2025 01:00 PM 16329
34595 15.7 4.00 5 69 36 64 5.1 -75 7 03/10/2025 12:45 PM 16328